sensor_id;sensor_type;location;lat;lon;timestamp;P1;durP1;ratioP1;P2;durP2;ratioP2
75990;SDS011;64673;52.276;10.560;2023-04-06T00:00:02;5.70;;;2.90;;
75990;SDS011;64673;52.276;10.560;2023-04-06T00:02:29;5.88;;;2.75;;
75990;SDS011;64673;52.276;10.560;2023-04-06T00:04:54;4.15;;;3.00;;
75990;SDS011;64673;52.276;10.560;2023-04-06T00:07:20;4.32;;;2.47;;
75990;SDS011;64673;52.276;10.560;2023-04-06T00:09:45;8.45;;;2.95;;
75990;SDS011;64673;52.276;10.560;2023-04-06T00:12:11;6.32;;;2.38;;
75990;SDS011;64673;52.276;10.560;2023-04-06T00:14:36;5.78;;;2.30;;
75990;SDS011;64673;52.276;10.560;2023-04-06T00:17:01;5.00;;;2.25;;
75990;SDS011;64673;52.276;10.560;2023-04-06T00:19:27;4.40;;;2.40;;
75990;SDS011;64673;52.276;10.560;2023-04-06T00:21:52;3.92;;;2.33;;
75990;SDS011;64673;52.276;10.560;2023-04-06T00:24:17;5.35;;;2.67;;
75990;SDS011;64673;52.276;10.560;2023-04-06T00:26:43;4.82;;;2.50;;
75990;SDS011;64673;52.276;10.560;2023-04-06T00:29:08;3.90;;;2.30;;
75990;SDS011;64673;52.276;10.560;2023-04-06T00:31:34;3.45;;;2.10;;
75990;SDS011;64673;52.276;10.560;2023-04-06T00:33:59;4.82;;;2.50;;
75990;SDS011;64673;52.276;10.560;2023-04-06T00:36:24;4.20;;;2.40;;
75990;SDS011;64673;52.276;10.560;2023-04-06T00:38:50;6.07;;;2.83;;
75990;SDS011;64673;52.276;10.560;2023-04-06T00:41:17;6.57;;;2.60;;
75990;SDS011;64673;52.276;10.560;2023-04-06T00:43:43;4.90;;;2.53;;
75990;SDS011;64673;52.276;10.560;2023-04-06T00:46:08;4.28;;;2.22;;
75990;SDS011;64673;52.276;10.560;2023-04-06T00:48:34;6.53;;;2.67;;
75990;SDS011;64673;52.276;10.560;2023-04-06T00:51:00;4.55;;;2.47;;
75990;SDS011;64673;52.276;10.560;2023-04-06T00:53:26;5.75;;;2.83;;
75990;SDS011;64673;52.276;10.560;2023-04-06T00:55:51;5.95;;;2.40;;
75990;SDS011;64673;52.276;10.560;2023-04-06T00:58:17;6.50;;;2.88;;
75990;SDS011;64673;52.276;10.560;2023-04-06T01:00:42;5.13;;;2.80;;
75990;SDS011;64673;52.276;10.560;2023-04-06T01:03:07;4.65;;;2.70;;
75990;SDS011;64673;52.276;10.560;2023-04-06T01:05:36;6.53;;;2.67;;
75990;SDS011;64673;52.276;10.560;2023-04-06T01:08:05;5.22;;;2.63;;
75990;SDS011;64673;52.276;10.560;2023-04-06T01:10:31;5.82;;;3.22;;
75990;SDS011;64673;52.276;10.560;2023-04-06T01:12:56;4.68;;;2.85;;
75990;SDS011;64673;52.276;10.560;2023-04-06T01:15:22;5.40;;;2.67;;
75990;SDS011;64673;52.276;10.560;2023-04-06T01:17:48;6.07;;;2.45;;
75990;SDS011;64673;52.276;10.560;2023-04-06T01:20:13;4.68;;;2.65;;
75990;SDS011;64673;52.276;10.560;2023-04-06T01:22:39;4.95;;;2.60;;
75990;SDS011;64673;52.276;10.560;2023-04-06T01:25:05;6.20;;;2.92;;
75990;SDS011;64673;52.276;10.560;2023-04-06T01:27:31;6.40;;;2.83;;
75990;SDS011;64673;52.276;10.560;2023-04-06T01:29:56;4.43;;;2.05;;
75990;SDS011;64673;52.276;10.560;2023-04-06T01:32:21;6.15;;;2.80;;
75990;SDS011;64673;52.276;10.560;2023-04-06T01:34:47;7.20;;;3.42;;
75990;SDS011;64673;52.276;10.560;2023-04-06T01:37:12;7.78;;;2.97;;
75990;SDS011;64673;52.276;10.560;2023-04-06T01:39:38;4.90;;;2.72;;
75990;SDS011;64673;52.276;10.560;2023-04-06T01:42:03;6.45;;;3.42;;
75990;SDS011;64673;52.276;10.560;2023-04-06T01:44:28;6.50;;;3.17;;
75990;SDS011;64673;52.276;10.560;2023-04-06T01:46:55;5.22;;;2.60;;
75990;SDS011;64673;52.276;10.560;2023-04-06T01:49:21;7.63;;;3.25;;
75990;SDS011;64673;52.276;10.560;2023-04-06T01:51:47;6.78;;;3.28;;
75990;SDS011;64673;52.276;10.560;2023-04-06T01:54:12;7.22;;;2.85;;
75990;SDS011;64673;52.276;10.560;2023-04-06T01:56:38;4.63;;;2.63;;
75990;SDS011;64673;52.276;10.560;2023-04-06T01:59:03;4.95;;;2.85;;
75990;SDS011;64673;52.276;10.560;2023-04-06T02:01:28;5.45;;;2.95;;
75990;SDS011;64673;52.276;10.560;2023-04-06T02:03:54;5.18;;;2.90;;
75990;SDS011;64673;52.276;10.560;2023-04-06T02:06:19;7.22;;;3.40;;
75990;SDS011;64673;52.276;10.560;2023-04-06T02:08:45;4.72;;;3.08;;
75990;SDS011;64673;52.276;10.560;2023-04-06T02:11:11;5.22;;;2.92;;
75990;SDS011;64673;52.276;10.560;2023-04-06T02:13:36;6.07;;;3.72;;
75990;SDS011;64673;52.276;10.560;2023-04-06T02:16:01;5.57;;;2.95;;
75990;SDS011;64673;52.276;10.560;2023-04-06T02:18:27;5.10;;;2.92;;
75990;SDS011;64673;52.276;10.560;2023-04-06T02:20:54;6.32;;;3.05;;
75990;SDS011;64673;52.276;10.560;2023-04-06T02:23:20;7.00;;;3.47;;
75990;SDS011;64673;52.276;10.560;2023-04-06T02:25:46;6.55;;;2.95;;
75990;SDS011;64673;52.276;10.560;2023-04-06T02:28:11;8.70;;;3.72;;
75990;SDS011;64673;52.276;10.560;2023-04-06T02:30:36;6.63;;;3.45;;
75990;SDS011;64673;52.276;10.560;2023-04-06T02:33:02;6.05;;;3.53;;
75990;SDS011;64673;52.276;10.560;2023-04-06T02:35:28;5.85;;;3.00;;
75990;SDS011;64673;52.276;10.560;2023-04-06T02:37:54;6.40;;;3.63;;
75990;SDS011;64673;52.276;10.560;2023-04-06T02:40:19;5.15;;;3.03;;
75990;SDS011;64673;52.276;10.560;2023-04-06T02:42:45;6.30;;;2.55;;
75990;SDS011;64673;52.276;10.560;2023-04-06T02:45:10;5.18;;;2.90;;
75990;SDS011;64673;52.276;10.560;2023-04-06T02:47:36;5.78;;;2.67;;
75990;SDS011;64673;52.276;10.560;2023-04-06T02:50:01;5.50;;;3.33;;
75990;SDS011;64673;52.276;10.560;2023-04-06T02:52:27;8.00;;;3.83;;
75990;SDS011;64673;52.276;10.560;2023-04-06T02:54:52;4.68;;;2.83;;
75990;SDS011;64673;52.276;10.560;2023-04-06T02:57:17;5.88;;;3.60;;
75990;SDS011;64673;52.276;10.560;2023-04-06T02:59:43;5.80;;;3.17;;
75990;SDS011;64673;52.276;10.560;2023-04-06T03:02:08;5.65;;;3.13;;
75990;SDS011;64673;52.276;10.560;2023-04-06T03:04:33;6.95;;;3.30;;
75990;SDS011;64673;52.276;10.560;2023-04-06T03:06:59;6.10;;;3.10;;
75990;SDS011;64673;52.276;10.560;2023-04-06T03:09:25;7.13;;;3.50;;
75990;SDS011;64673;52.276;10.560;2023-04-06T03:11:50;9.63;;;3.78;;
75990;SDS011;64673;52.276;10.560;2023-04-06T03:14:15;8.30;;;3.67;;
75990;SDS011;64673;52.276;10.560;2023-04-06T03:16:42;7.97;;;3.92;;
75990;SDS011;64673;52.276;10.560;2023-04-06T03:19:08;7.60;;;4.68;;
75990;SDS011;64673;52.276;10.560;2023-04-06T03:21:33;8.27;;;4.10;;
75990;SDS011;64673;52.276;10.560;2023-04-06T03:23:58;8.40;;;4.10;;
75990;SDS011;64673;52.276;10.560;2023-04-06T03:26:24;5.75;;;3.40;;
75990;SDS011;64673;52.276;10.560;2023-04-06T03:28:49;8.82;;;4.13;;
75990;SDS011;64673;52.276;10.560;2023-04-06T03:31:15;6.22;;;3.70;;
75990;SDS011;64673;52.276;10.560;2023-04-06T03:33:40;7.95;;;4.00;;
75990;SDS011;64673;52.276;10.560;2023-04-06T03:36:06;7.15;;;4.13;;
75990;SDS011;64673;52.276;10.560;2023-04-06T03:38:31;7.22;;;3.85;;
75990;SDS011;64673;52.276;10.560;2023-04-06T03:40:57;8.85;;;3.55;;
75990;SDS011;64673;52.276;10.560;2023-04-06T03:43:22;9.05;;;4.47;;
75990;SDS011;64673;52.276;10.560;2023-04-06T03:45:48;7.50;;;4.35;;
75990;SDS011;64673;52.276;10.560;2023-04-06T03:48:13;7.03;;;4.05;;
75990;SDS011;64673;52.276;10.560;2023-04-06T03:50:38;8.27;;;4.35;;
75990;SDS011;64673;52.276;10.560;2023-04-06T03:53:04;6.30;;;3.38;;
75990;SDS011;64673;52.276;10.560;2023-04-06T03:55:29;7.25;;;4.13;;
75990;SDS011;64673;52.276;10.560;2023-04-06T03:57:55;7.43;;;3.72;;
75990;SDS011;64673;52.276;10.560;2023-04-06T04:00:20;7.50;;;4.10;;
75990;SDS011;64673;52.276;10.560;2023-04-06T04:02:46;5.68;;;3.78;;
75990;SDS011;64673;52.276;10.560;2023-04-06T04:05:11;8.10;;;3.85;;
75990;SDS011;64673;52.276;10.560;2023-04-06T04:07:36;7.70;;;4.43;;
75990;SDS011;64673;52.276;10.560;2023-04-06T04:10:02;7.85;;;4.07;;
75990;SDS011;64673;52.276;10.560;2023-04-06T04:12:29;6.63;;;4.10;;
75990;SDS011;64673;52.276;10.560;2023-04-06T04:14:54;9.27;;;4.10;;
75990;SDS011;64673;52.276;10.560;2023-04-06T04:17:21;8.90;;;4.60;;
75990;SDS011;64673;52.276;10.560;2023-04-06T04:19:46;9.15;;;4.07;;
75990;SDS011;64673;52.276;10.560;2023-04-06T04:22:11;7.38;;;3.70;;
75990;SDS011;64673;52.276;10.560;2023-04-06T04:24:37;5.95;;;4.00;;
75990;SDS011;64673;52.276;10.560;2023-04-06T04:27:03;6.97;;;3.70;;
75990;SDS011;64673;52.276;10.560;2023-04-06T04:29:29;7.03;;;3.55;;
75990;SDS011;64673;52.276;10.560;2023-04-06T04:31:55;8.30;;;4.18;;
75990;SDS011;64673;52.276;10.560;2023-04-06T04:34:20;8.02;;;4.25;;
75990;SDS011;64673;52.276;10.560;2023-04-06T04:39:14;8.70;;;3.37;;
75990;SDS011;64673;52.276;10.560;2023-04-06T04:41:39;7.70;;;3.97;;
75990;SDS011;64673;52.276;10.560;2023-04-06T04:44:04;9.55;;;4.55;;
75990;SDS011;64673;52.276;10.560;2023-04-06T04:46:30;8.20;;;4.25;;
75990;SDS011;64673;52.276;10.560;2023-04-06T04:48:55;9.00;;;4.78;;
75990;SDS011;64673;52.276;10.560;2023-04-06T04:51:21;9.65;;;4.65;;
75990;SDS011;64673;52.276;10.560;2023-04-06T04:53:46;7.78;;;4.35;;
75990;SDS011;64673;52.276;10.560;2023-04-06T04:56:12;10.48;;;5.18;;
75990;SDS011;64673;52.276;10.560;2023-04-06T04:58:37;10.18;;;5.13;;
75990;SDS011;64673;52.276;10.560;2023-04-06T05:01:03;12.30;;;5.80;;
75990;SDS011;64673;52.276;10.560;2023-04-06T05:03:28;9.10;;;4.38;;
75990;SDS011;64673;52.276;10.560;2023-04-06T05:05:54;10.80;;;4.75;;
75990;SDS011;64673;52.276;10.560;2023-04-06T05:08:20;14.13;;;4.70;;
75990;SDS011;64673;52.276;10.560;2023-04-06T05:10:45;9.10;;;4.38;;
75990;SDS011;64673;52.276;10.560;2023-04-06T05:13:11;13.63;;;6.00;;
75990;SDS011;64673;52.276;10.560;2023-04-06T05:15:37;13.70;;;6.07;;
75990;SDS011;64673;52.276;10.560;2023-04-06T05:18:06;9.60;;;5.18;;
75990;SDS011;64673;52.276;10.560;2023-04-06T05:20:33;7.90;;;4.88;;
75990;SDS011;64673;52.276;10.560;2023-04-06T05:22:58;10.65;;;5.63;;
75990;SDS011;64673;52.276;10.560;2023-04-06T05:25:24;13.25;;;5.25;;
75990;SDS011;64673;52.276;10.560;2023-04-06T05:27:50;11.23;;;5.75;;
75990;SDS011;64673;52.276;10.560;2023-04-06T05:30:15;11.55;;;5.72;;
75990;SDS011;64673;52.276;10.560;2023-04-06T05:32:41;11.57;;;5.63;;
75990;SDS011;64673;52.276;10.560;2023-04-06T05:35:08;8.70;;;5.13;;
75990;SDS011;64673;52.276;10.560;2023-04-06T05:37:34;10.65;;;5.88;;
75990;SDS011;64673;52.276;10.560;2023-04-06T05:39:59;11.18;;;5.72;;
75990;SDS011;64673;52.276;10.560;2023-04-06T05:42:25;9.80;;;5.45;;
75990;SDS011;64673;52.276;10.560;2023-04-06T05:44:52;11.38;;;5.53;;
75990;SDS011;64673;52.276;10.560;2023-04-06T05:47:17;11.48;;;5.93;;
75990;SDS011;64673;52.276;10.560;2023-04-06T05:49:43;13.43;;;6.20;;
75990;SDS011;64673;52.276;10.560;2023-04-06T05:52:08;11.20;;;5.75;;
75990;SDS011;64673;52.276;10.560;2023-04-06T05:54:35;12.45;;;6.20;;
75990;SDS011;64673;52.276;10.560;2023-04-06T05:57:03;11.63;;;6.25;;
75990;SDS011;64673;52.276;10.560;2023-04-06T05:59:32;10.68;;;6.25;;
75990;SDS011;64673;52.276;10.560;2023-04-06T06:01:57;11.82;;;5.55;;
75990;SDS011;64673;52.276;10.560;2023-04-06T06:04:23;10.45;;;6.13;;
75990;SDS011;64673;52.276;10.560;2023-04-06T06:06:48;10.98;;;5.68;;
75990;SDS011;64673;52.276;10.560;2023-04-06T06:09:13;10.88;;;5.03;;
75990;SDS011;64673;52.276;10.560;2023-04-06T06:11:39;9.98;;;5.55;;
75990;SDS011;64673;52.276;10.560;2023-04-06T06:14:06;11.73;;;5.63;;
75990;SDS011;64673;52.276;10.560;2023-04-06T06:16:31;9.65;;;5.55;;
75990;SDS011;64673;52.276;10.560;2023-04-06T06:18:57;10.52;;;5.55;;
75990;SDS011;64673;52.276;10.560;2023-04-06T06:21:22;10.57;;;6.00;;
75990;SDS011;64673;52.276;10.560;2023-04-06T06:23:47;9.55;;;5.90;;
75990;SDS011;64673;52.276;10.560;2023-04-06T06:26:16;11.05;;;6.43;;
75990;SDS011;64673;52.276;10.560;2023-04-06T06:28:41;9.90;;;6.07;;
75990;SDS011;64673;52.276;10.560;2023-04-06T06:31:07;11.07;;;6.47;;
75990;SDS011;64673;52.276;10.560;2023-04-06T06:33:32;11.73;;;6.35;;
75990;SDS011;64673;52.276;10.560;2023-04-06T06:35:58;9.38;;;6.13;;
75990;SDS011;64673;52.276;10.560;2023-04-06T06:38:23;11.77;;;6.82;;
75990;SDS011;64673;52.276;10.560;2023-04-06T06:40:48;9.93;;;5.60;;
75990;SDS011;64673;52.276;10.560;2023-04-06T06:43:14;11.10;;;6.28;;
75990;SDS011;64673;52.276;10.560;2023-04-06T06:45:39;12.38;;;6.28;;
75990;SDS011;64673;52.276;10.560;2023-04-06T06:48:05;10.27;;;6.55;;
75990;SDS011;64673;52.276;10.560;2023-04-06T06:50:30;10.50;;;6.07;;
75990;SDS011;64673;52.276;10.560;2023-04-06T06:52:56;11.25;;;6.18;;
75990;SDS011;64673;52.276;10.560;2023-04-06T06:55:21;11.07;;;6.55;;
75990;SDS011;64673;52.276;10.560;2023-04-06T06:57:46;9.13;;;5.97;;
75990;SDS011;64673;52.276;10.560;2023-04-06T07:00:12;10.75;;;6.47;;
75990;SDS011;64673;52.276;10.560;2023-04-06T07:02:39;9.95;;;6.40;;
75990;SDS011;64673;52.276;10.560;2023-04-06T07:05:05;14.80;;;6.00;;
75990;SDS011;64673;52.276;10.560;2023-04-06T07:07:31;12.05;;;6.97;;
75990;SDS011;64673;52.276;10.560;2023-04-06T07:09:58;9.52;;;6.10;;
75990;SDS011;64673;52.276;10.560;2023-04-06T07:12:23;10.63;;;5.93;;
75990;SDS011;64673;52.276;10.560;2023-04-06T07:14:49;11.18;;;6.25;;
75990;SDS011;64673;52.276;10.560;2023-04-06T07:17:14;13.45;;;6.13;;
75990;SDS011;64673;52.276;10.560;2023-04-06T07:19:39;8.05;;;5.47;;
75990;SDS011;64673;52.276;10.560;2023-04-06T07:22:05;7.75;;;5.07;;
75990;SDS011;64673;52.276;10.560;2023-04-06T07:24:31;7.82;;;4.97;;
75990;SDS011;64673;52.276;10.560;2023-04-06T07:26:57;8.40;;;4.97;;
75990;SDS011;64673;52.276;10.560;2023-04-06T07:29:25;8.73;;;5.15;;
75990;SDS011;64673;52.276;10.560;2023-04-06T07:31:50;8.32;;;5.47;;
75990;SDS011;64673;52.276;10.560;2023-04-06T07:34:16;7.13;;;4.90;;
75990;SDS011;64673;52.276;10.560;2023-04-06T07:36:41;7.38;;;5.25;;
75990;SDS011;64673;52.276;10.560;2023-04-06T07:39:06;8.82;;;4.53;;
75990;SDS011;64673;52.276;10.560;2023-04-06T07:41:32;6.78;;;5.05;;
75990;SDS011;64673;52.276;10.560;2023-04-06T07:43:57;7.90;;;4.82;;
75990;SDS011;64673;52.276;10.560;2023-04-06T07:46:23;8.20;;;4.45;;
75990;SDS011;64673;52.276;10.560;2023-04-06T07:48:49;8.23;;;4.97;;
75990;SDS011;64673;52.276;10.560;2023-04-06T07:51:15;7.65;;;4.63;;
75990;SDS011;64673;52.276;10.560;2023-04-06T07:53:42;7.70;;;4.47;;
75990;SDS011;64673;52.276;10.560;2023-04-06T07:56:09;8.52;;;4.88;;
75990;SDS011;64673;52.276;10.560;2023-04-06T07:58:35;8.15;;;4.45;;
75990;SDS011;64673;52.276;10.560;2023-04-06T08:01:00;6.28;;;4.30;;
75990;SDS011;64673;52.276;10.560;2023-04-06T08:03:26;8.55;;;4.80;;
75990;SDS011;64673;52.276;10.560;2023-04-06T08:05:51;7.30;;;4.30;;
75990;SDS011;64673;52.276;10.560;2023-04-06T08:08:17;7.30;;;4.22;;
75990;SDS011;64673;52.276;10.560;2023-04-06T08:10:44;7.57;;;4.70;;
75990;SDS011;64673;52.276;10.560;2023-04-06T08:13:09;5.68;;;4.07;;
75990;SDS011;64673;52.276;10.560;2023-04-06T08:15:35;7.25;;;4.60;;
75990;SDS011;64673;52.276;10.560;2023-04-06T08:18:00;8.95;;;4.80;;
75990;SDS011;64673;52.276;10.560;2023-04-06T08:20:26;6.38;;;4.50;;
75990;SDS011;64673;52.276;10.560;2023-04-06T08:22:51;6.65;;;4.35;;
75990;SDS011;64673;52.276;10.560;2023-04-06T08:25:16;10.50;;;4.53;;
75990;SDS011;64673;52.276;10.560;2023-04-06T08:27:42;9.30;;;4.30;;
75990;SDS011;64673;52.276;10.560;2023-04-06T08:30:07;8.60;;;4.30;;
75990;SDS011;64673;52.276;10.560;2023-04-06T08:32:33;7.38;;;4.22;;
75990;SDS011;64673;52.276;10.560;2023-04-06T08:34:59;6.38;;;3.78;;
75990;SDS011;64673;52.276;10.560;2023-04-06T08:37:24;5.65;;;3.97;;
75990;SDS011;64673;52.276;10.560;2023-04-06T08:39:50;7.28;;;4.10;;
75990;SDS011;64673;52.276;10.560;2023-04-06T08:42:19;9.18;;;4.78;;
75990;SDS011;64673;52.276;10.560;2023-04-06T08:44:45;6.78;;;4.28;;
75990;SDS011;64673;52.276;10.560;2023-04-06T08:47:12;11.45;;;4.40;;
75990;SDS011;64673;52.276;10.560;2023-04-06T08:49:38;8.45;;;4.30;;
75990;SDS011;64673;52.276;10.560;2023-04-06T08:52:06;5.93;;;4.05;;
75990;SDS011;64673;52.276;10.560;2023-04-06T08:54:33;7.22;;;3.38;;
75990;SDS011;64673;52.276;10.560;2023-04-06T08:56:58;8.57;;;4.47;;
75990;SDS011;64673;52.276;10.560;2023-04-06T08:59:25;6.47;;;3.85;;
75990;SDS011;64673;52.276;10.560;2023-04-06T09:01:50;7.93;;;3.97;;
75990;SDS011;64673;52.276;10.560;2023-04-06T09:04:17;7.32;;;4.18;;
75990;SDS011;64673;52.276;10.560;2023-04-06T09:06:43;7.25;;;4.10;;
75990;SDS011;64673;52.276;10.560;2023-04-06T09:09:08;8.38;;;4.82;;
75990;SDS011;64673;52.276;10.560;2023-04-06T09:11:47;8.88;;;4.93;;
75990;SDS011;64673;52.276;10.560;2023-04-06T09:14:14;7.97;;;4.50;;
75990;SDS011;64673;52.276;10.560;2023-04-06T09:16:45;7.75;;;4.40;;
75990;SDS011;64673;52.276;10.560;2023-04-06T09:19:11;8.82;;;4.38;;
75990;SDS011;64673;52.276;10.560;2023-04-06T09:21:37;6.80;;;3.55;;
75990;SDS011;64673;52.276;10.560;2023-04-06T09:24:05;7.03;;;4.00;;
75990;SDS011;64673;52.276;10.560;2023-04-06T09:26:32;9.40;;;4.53;;
75990;SDS011;64673;52.276;10.560;2023-04-06T09:29:10;7.15;;;4.72;;
75990;SDS011;64673;52.276;10.560;2023-04-06T09:31:35;6.18;;;3.70;;
75990;SDS011;64673;52.276;10.560;2023-04-06T09:34:01;10.10;;;4.88;;
75990;SDS011;64673;52.276;10.560;2023-04-06T09:36:30;7.30;;;4.07;;
75990;SDS011;64673;52.276;10.560;2023-04-06T09:39:03;9.40;;;4.25;;
75990;SDS011;64673;52.276;10.560;2023-04-06T09:41:30;9.05;;;3.97;;
75990;SDS011;64673;52.276;10.560;2023-04-06T09:46:29;7.40;;;3.45;;
75990;SDS011;64673;52.276;10.560;2023-04-06T09:48:56;7.38;;;4.47;;
75990;SDS011;64673;52.276;10.560;2023-04-06T09:51:23;9.80;;;4.55;;
75990;SDS011;64673;52.276;10.560;2023-04-06T09:56:17;5.97;;;3.60;;
75990;SDS011;64673;52.276;10.560;2023-04-06T09:58:47;9.43;;;4.85;;
75990;SDS011;64673;52.276;10.560;2023-04-06T10:01:15;7.53;;;4.05;;
75990;SDS011;64673;52.276;10.560;2023-04-06T10:03:48;7.35;;;4.70;;
75990;SDS011;64673;52.276;10.560;2023-04-06T10:06:21;6.43;;;4.15;;
75990;SDS011;64673;52.276;10.560;2023-04-06T10:08:50;7.57;;;4.20;;
75990;SDS011;64673;52.276;10.560;2023-04-06T10:11:20;7.85;;;4.25;;
75990;SDS011;64673;52.276;10.560;2023-04-06T10:13:46;9.93;;;4.70;;
75990;SDS011;64673;52.276;10.560;2023-04-06T10:16:14;6.00;;;3.95;;
75990;SDS011;64673;52.276;10.560;2023-04-06T10:18:41;8.73;;;4.57;;
75990;SDS011;64673;52.276;10.560;2023-04-06T10:21:11;9.55;;;4.55;;
75990;SDS011;64673;52.276;10.560;2023-04-06T10:23:45;8.32;;;4.57;;
75990;SDS011;64673;52.276;10.560;2023-04-06T10:26:17;6.65;;;4.03;;
75990;SDS011;64673;52.276;10.560;2023-04-06T10:28:45;7.40;;;4.03;;
75990;SDS011;64673;52.276;10.560;2023-04-06T10:31:11;8.52;;;4.32;;
75990;SDS011;64673;52.276;10.560;2023-04-06T10:33:37;6.65;;;4.22;;
75990;SDS011;64673;52.276;10.560;2023-04-06T10:36:20;7.10;;;3.92;;
75990;SDS011;64673;52.276;10.560;2023-04-06T10:38:53;9.65;;;4.20;;
75990;SDS011;64673;52.276;10.560;2023-04-06T10:41:19;6.05;;;3.95;;
75990;SDS011;64673;52.276;10.560;2023-04-06T10:43:45;7.28;;;3.80;;
75990;SDS011;64673;52.276;10.560;2023-04-06T10:46:24;7.10;;;3.90;;
75990;SDS011;64673;52.276;10.560;2023-04-06T10:48:50;6.65;;;4.32;;
75990;SDS011;64673;52.276;10.560;2023-04-06T10:51:17;7.20;;;4.35;;
75990;SDS011;64673;52.276;10.560;2023-04-06T10:53:47;7.43;;;4.47;;
75990;SDS011;64673;52.276;10.560;2023-04-06T10:56:15;6.93;;;4.50;;
75990;SDS011;64673;52.276;10.560;2023-04-06T10:58:45;9.77;;;4.72;;
75990;SDS011;64673;52.276;10.560;2023-04-06T11:01:18;7.25;;;4.53;;
75990;SDS011;64673;52.276;10.560;2023-04-06T11:03:48;10.50;;;4.88;;
75990;SDS011;64673;52.276;10.560;2023-04-06T11:06:20;7.15;;;4.50;;
75990;SDS011;64673;52.276;10.560;2023-04-06T11:08:50;7.72;;;4.75;;
75990;SDS011;64673;52.276;10.560;2023-04-06T11:11:17;9.57;;;4.85;;
75990;SDS011;64673;52.276;10.560;2023-04-06T11:16:29;8.43;;;4.40;;
75990;SDS011;64673;52.276;10.560;2023-04-06T11:19:03;7.07;;;4.90;;
75990;SDS011;64673;52.276;10.560;2023-04-06T11:21:33;9.98;;;4.75;;
75990;SDS011;64673;52.276;10.560;2023-04-06T11:26:45;10.57;;;5.63;;
75990;SDS011;64673;52.276;10.560;2023-04-06T11:29:13;8.75;;;4.80;;
75990;SDS011;64673;52.276;10.560;2023-04-06T11:32:02;8.23;;;4.50;;
75990;SDS011;64673;52.276;10.560;2023-04-06T11:34:32;7.47;;;4.78;;
75990;SDS011;64673;52.276;10.560;2023-04-06T11:37:01;8.73;;;4.72;;
75990;SDS011;64673;52.276;10.560;2023-04-06T11:39:28;8.85;;;5.10;;
75990;SDS011;64673;52.276;10.560;2023-04-06T11:41:58;9.13;;;5.18;;
75990;SDS011;64673;52.276;10.560;2023-04-06T11:46:53;8.90;;;4.72;;
75990;SDS011;64673;52.276;10.560;2023-04-06T11:49:19;7.95;;;4.90;;
75990;SDS011;64673;52.276;10.560;2023-04-06T11:51:45;8.30;;;4.80;;
75990;SDS011;64673;52.276;10.560;2023-04-06T11:54:11;5.78;;;4.28;;
75990;SDS011;64673;52.276;10.560;2023-04-06T11:56:37;8.02;;;4.38;;
75990;SDS011;64673;52.276;10.560;2023-04-06T11:59:03;7.32;;;4.97;;
75990;SDS011;64673;52.276;10.560;2023-04-06T12:01:29;8.00;;;4.93;;
75990;SDS011;64673;52.276;10.560;2023-04-06T12:03:55;9.65;;;4.57;;
75990;SDS011;64673;52.276;10.560;2023-04-06T12:06:20;8.57;;;4.70;;
75990;SDS011;64673;52.276;10.560;2023-04-06T12:08:46;7.90;;;4.85;;
75990;SDS011;64673;52.276;10.560;2023-04-06T12:11:11;7.70;;;5.25;;
75990;SDS011;64673;52.276;10.560;2023-04-06T12:13:37;7.25;;;4.72;;
75990;SDS011;64673;52.276;10.560;2023-04-06T12:16:02;8.35;;;5.07;;
75990;SDS011;64673;52.276;10.560;2023-04-06T12:18:29;7.97;;;4.80;;
75990;SDS011;64673;52.276;10.560;2023-04-06T12:20:54;7.75;;;4.45;;
75990;SDS011;64673;52.276;10.560;2023-04-06T12:23:20;7.35;;;4.35;;
75990;SDS011;64673;52.276;10.560;2023-04-06T12:25:45;9.95;;;4.80;;
75990;SDS011;64673;52.276;10.560;2023-04-06T12:28:11;7.38;;;4.70;;
75990;SDS011;64673;52.276;10.560;2023-04-06T12:30:36;8.60;;;5.28;;
75990;SDS011;64673;52.276;10.560;2023-04-06T12:33:02;9.75;;;4.93;;
75990;SDS011;64673;52.276;10.560;2023-04-06T12:35:27;8.32;;;5.20;;
75990;SDS011;64673;52.276;10.560;2023-04-06T12:37:53;7.43;;;4.85;;
75990;SDS011;64673;52.276;10.560;2023-04-06T12:40:18;8.27;;;5.00;;
75990;SDS011;64673;52.276;10.560;2023-04-06T12:42:44;7.97;;;5.00;;
75990;SDS011;64673;52.276;10.560;2023-04-06T12:45:11;8.27;;;4.55;;
75990;SDS011;64673;52.276;10.560;2023-04-06T12:47:36;7.43;;;4.30;;
75990;SDS011;64673;52.276;10.560;2023-04-06T12:50:02;7.05;;;4.30;;
75990;SDS011;64673;52.276;10.560;2023-04-06T12:52:29;6.43;;;4.25;;
75990;SDS011;64673;52.276;10.560;2023-04-06T12:54:56;9.13;;;4.70;;
75990;SDS011;64673;52.276;10.560;2023-04-06T12:57:22;9.10;;;5.03;;
75990;SDS011;64673;52.276;10.560;2023-04-06T12:59:47;9.30;;;4.97;;
75990;SDS011;64673;52.276;10.560;2023-04-06T13:02:13;9.82;;;5.22;;
75990;SDS011;64673;52.276;10.560;2023-04-06T13:04:38;8.77;;;4.53;;
75990;SDS011;64673;52.276;10.560;2023-04-06T13:07:04;7.05;;;4.38;;
75990;SDS011;64673;52.276;10.560;2023-04-06T13:09:29;6.60;;;4.22;;
75990;SDS011;64673;52.276;10.560;2023-04-06T13:11:55;8.45;;;4.95;;
75990;SDS011;64673;52.276;10.560;2023-04-06T13:14:20;6.95;;;4.20;;
75990;SDS011;64673;52.276;10.560;2023-04-06T13:16:46;7.13;;;3.67;;
75990;SDS011;64673;52.276;10.560;2023-04-06T13:19:11;6.82;;;3.55;;
75990;SDS011;64673;52.276;10.560;2023-04-06T13:21:37;7.03;;;3.70;;
75990;SDS011;64673;52.276;10.560;2023-04-06T13:24:02;5.25;;;4.20;;
75990;SDS011;64673;52.276;10.560;2023-04-06T13:26:28;7.43;;;3.90;;
75990;SDS011;64673;52.276;10.560;2023-04-06T13:28:53;6.47;;;4.18;;
75990;SDS011;64673;52.276;10.560;2023-04-06T13:31:21;5.78;;;3.67;;
75990;SDS011;64673;52.276;10.560;2023-04-06T13:33:46;6.93;;;4.28;;
75990;SDS011;64673;52.276;10.560;2023-04-06T13:36:11;6.68;;;4.22;;
75990;SDS011;64673;52.276;10.560;2023-04-06T13:38:37;6.75;;;4.25;;
75990;SDS011;64673;52.276;10.560;2023-04-06T13:41:03;8.15;;;5.43;;
75990;SDS011;64673;52.276;10.560;2023-04-06T13:43:29;6.35;;;4.35;;
75990;SDS011;64673;52.276;10.560;2023-04-06T13:45:55;6.18;;;4.03;;
75990;SDS011;64673;52.276;10.560;2023-04-06T13:48:21;7.22;;;4.07;;
75990;SDS011;64673;52.276;10.560;2023-04-06T13:50:46;7.10;;;4.05;;
75990;SDS011;64673;52.276;10.560;2023-04-06T13:53:12;6.25;;;3.55;;
75990;SDS011;64673;52.276;10.560;2023-04-06T13:55:38;7.72;;;4.60;;
75990;SDS011;64673;52.276;10.560;2023-04-06T13:58:03;6.30;;;3.65;;
75990;SDS011;64673;52.276;10.560;2023-04-06T14:00:28;6.63;;;3.88;;
75990;SDS011;64673;52.276;10.560;2023-04-06T14:02:54;6.15;;;4.00;;
75990;SDS011;64673;52.276;10.560;2023-04-06T14:05:20;8.05;;;4.35;;
75990;SDS011;64673;52.276;10.560;2023-04-06T14:07:46;6.93;;;4.07;;
75990;SDS011;64673;52.276;10.560;2023-04-06T14:10:11;6.32;;;4.00;;
75990;SDS011;64673;52.276;10.560;2023-04-06T14:12:38;5.78;;;4.13;;
75990;SDS011;64673;52.276;10.560;2023-04-06T14:15:08;8.50;;;4.32;;
75990;SDS011;64673;52.276;10.560;2023-04-06T14:17:35;6.47;;;4.50;;
75990;SDS011;64673;52.276;10.560;2023-04-06T14:20:01;6.15;;;4.13;;
75990;SDS011;64673;52.276;10.560;2023-04-06T14:22:27;7.28;;;4.57;;
75990;SDS011;64673;52.276;10.560;2023-04-06T14:24:52;7.47;;;4.47;;
75990;SDS011;64673;52.276;10.560;2023-04-06T14:27:17;6.93;;;4.75;;
75990;SDS011;64673;52.276;10.560;2023-04-06T14:29:43;6.53;;;4.22;;
75990;SDS011;64673;52.276;10.560;2023-04-06T14:32:08;5.95;;;3.60;;
75990;SDS011;64673;52.276;10.560;2023-04-06T14:34:36;8.02;;;4.25;;
75990;SDS011;64673;52.276;10.560;2023-04-06T14:37:02;6.50;;;4.30;;
75990;SDS011;64673;52.276;10.560;2023-04-06T14:39:27;10.40;;;4.80;;
75990;SDS011;64673;52.276;10.560;2023-04-06T14:41:52;8.30;;;4.32;;